createdAt,value
2023-03-24T00:00:11.018Z,13.13
2023-03-24T00:01:11.040Z,13.21
2023-03-24T00:02:11.028Z,13.23
2023-03-24T00:03:11.099Z,13.06
2023-03-24T00:04:11.067Z,13.09
2023-03-24T00:05:10.998Z,13.19
2023-03-24T00:06:10.957Z,13.13
2023-03-24T00:07:10.970Z,13.04
2023-03-24T00:08:10.936Z,13.09
2023-03-24T00:09:10.960Z,13.08
2023-03-24T00:10:10.931Z,13.06
2023-03-24T00:11:10.902Z,13.09
2023-03-24T00:12:10.891Z,13.08
2023-03-24T00:13:10.945Z,13.02
2023-03-24T00:14:10.871Z,13.04
2023-03-24T00:15:10.886Z,13.06
2023-03-24T00:16:10.882Z,13.02
2023-03-24T00:17:10.871Z,12.99
2023-03-24T00:18:10.890Z,12.98
2023-03-24T00:19:10.821Z,13.08
2023-03-24T00:20:10.836Z,12.98
2023-03-24T00:21:10.821Z,13.04
2023-03-24T00:22:10.788Z,13.02
2023-03-24T00:23:10.797Z,13.01
2023-03-24T00:24:10.767Z,13.04
2023-03-24T00:25:10.779Z,13.05
2023-03-24T00:26:10.745Z,12.90
2023-03-24T00:27:10.743Z,13.02
2023-03-24T00:28:10.749Z,12.90
2023-03-24T00:29:10.714Z,12.96
2023-03-24T00:30:10.728Z,13.02
2023-03-24T00:31:10.700Z,12.98
2023-03-24T00:32:10.683Z,12.90
2023-03-24T00:33:10.724Z,12.98
2023-03-24T00:34:10.659Z,12.81
2023-03-24T00:35:10.674Z,12.81
2023-03-24T00:36:10.648Z,12.86
2023-03-24T00:37:10.651Z,12.95
2023-03-24T00:38:10.637Z,12.90
2023-03-24T00:39:10.610Z,12.91
2023-03-24T00:40:10.597Z,12.95
2023-03-24T00:41:10.626Z,12.95
2023-03-24T00:42:10.581Z,12.91
2023-03-24T00:43:10.583Z,12.93
2023-03-24T00:44:10.548Z,12.91
2023-03-24T00:45:10.551Z,12.93
2023-03-24T00:46:10.552Z,12.88
2023-03-24T00:47:10.531Z,12.95
2023-03-24T00:48:10.536Z,12.88
2023-03-24T00:49:10.523Z,12.90
2023-03-24T00:50:10.494Z,12.83
2023-03-24T00:51:10.487Z,12.86
2023-03-24T00:52:10.485Z,12.81
2023-03-24T00:53:10.477Z,12.87
2023-03-24T00:54:10.455Z,12.81
2023-03-24T00:55:10.438Z,12.77
2023-03-24T00:56:10.449Z,12.80
2023-03-24T00:57:10.513Z,12.83
2023-03-24T00:58:10.395Z,12.80
2023-03-24T00:59:11.048Z,12.76
2023-03-24T01:00:10.379Z,12.77
2023-03-24T01:01:10.412Z,12.83
2023-03-24T01:02:10.402Z,12.80
2023-03-24T01:03:10.423Z,12.81
2023-03-24T01:04:10.432Z,12.80
2023-03-24T01:05:10.320Z,12.80
2023-03-24T01:06:10.306Z,12.83
2023-03-24T01:07:10.319Z,12.86
2023-03-24T01:08:10.287Z,12.79
2023-03-24T01:09:10.408Z,12.79
2023-03-24T01:10:10.272Z,12.73
2023-03-24T01:11:10.253Z,12.79
2023-03-24T01:12:10.264Z,12.73
2023-03-24T01:13:10.253Z,12.80
2023-03-24T01:14:10.217Z,12.69
2023-03-24T01:15:10.211Z,12.71
2023-03-24T01:16:10.220Z,12.73
2023-03-24T01:17:10.211Z,12.71
2023-03-24T01:18:10.236Z,12.77
2023-03-24T01:19:10.161Z,12.71
2023-03-24T01:20:10.153Z,12.65
2023-03-24T01:21:10.152Z,12.71
2023-03-24T01:22:10.153Z,12.79
2023-03-24T01:23:10.125Z,12.79
2023-03-24T01:24:10.133Z,12.69
2023-03-24T01:25:10.134Z,12.69
2023-03-24T01:26:10.086Z,12.66
2023-03-24T01:27:10.114Z,12.73
2023-03-24T01:28:10.061Z,12.69
2023-03-24T01:29:10.059Z,12.72
2023-03-24T01:30:10.045Z,12.72
2023-03-24T01:31:10.130Z,12.66
2023-03-24T01:32:10.057Z,12.73
2023-03-24T01:33:10.018Z,12.68
2023-03-24T01:34:09.999Z,12.68
2023-03-24T01:35:10.031Z,12.69
2023-03-24T01:36:10.078Z,12.62
2023-03-24T01:37:09.976Z,12.68
2023-03-24T01:38:09.982Z,12.72
2023-03-24T01:39:09.953Z,12.65
2023-03-24T01:40:09.943Z,12.72
2023-03-24T01:41:09.954Z,12.66
2023-03-24T01:42:09.915Z,12.72
2023-03-24T01:43:09.935Z,12.69
2023-03-24T01:44:09.893Z,12.65
2023-03-24T01:45:09.892Z,12.68
2023-03-24T01:46:09.901Z,12.79
2023-03-24T01:47:09.862Z,12.73
2023-03-24T01:48:09.895Z,12.72
2023-03-24T01:49:09.849Z,12.65
2023-03-24T01:50:09.825Z,12.72
2023-03-24T01:51:09.829Z,12.63
2023-03-24T01:52:09.810Z,12.69
2023-03-24T01:53:09.831Z,12.59
2023-03-24T01:54:09.828Z,12.61
2023-03-24T01:55:09.776Z,12.73
2023-03-24T01:56:09.763Z,12.71
2023-03-24T01:57:09.827Z,12.59
2023-03-24T01:58:09.770Z,12.66
2023-03-24T01:59:09.734Z,12.65
2023-03-24T02:00:09.720Z,12.66
2023-03-24T02:01:09.724Z,12.62
2023-03-24T02:02:09.694Z,12.68
2023-03-24T02:03:09.713Z,12.73
2023-03-24T02:04:09.714Z,12.72
2023-03-24T02:05:09.690Z,12.59
2023-03-24T02:06:09.656Z,12.68
2023-03-24T02:07:09.648Z,12.65
2023-03-24T02:08:09.630Z,12.62
2023-03-24T02:09:09.643Z,12.69
2023-03-24T02:10:09.617Z,12.65
2023-03-24T02:11:09.609Z,12.54
2023-03-24T02:12:09.614Z,12.63
2023-03-24T02:13:09.624Z,12.58
2023-03-24T02:14:09.586Z,12.69
2023-03-24T02:15:09.556Z,12.58
2023-03-24T02:16:09.566Z,12.63
2023-03-24T02:17:09.537Z,12.55
2023-03-24T02:18:09.551Z,12.68
2023-03-24T02:19:09.545Z,12.69
2023-03-24T02:20:09.501Z,12.61
2023-03-24T02:21:09.499Z,12.59
2023-03-24T02:22:09.499Z,12.59
2023-03-24T02:23:09.480Z,12.55
2023-03-24T02:24:09.482Z,12.62
2023-03-24T02:25:09.452Z,12.63
2023-03-24T02:26:09.437Z,12.62
2023-03-24T02:27:09.433Z,12.63
2023-03-24T02:28:09.436Z,12.54
2023-03-24T02:29:09.458Z,12.66
2023-03-24T02:30:09.393Z,12.65
2023-03-24T02:31:09.386Z,12.69
2023-03-24T02:32:09.369Z,12.63
2023-03-24T02:33:09.362Z,12.68
2023-03-24T02:34:09.367Z,12.71
2023-03-24T02:35:09.362Z,12.59
2023-03-24T02:36:09.426Z,12.65
2023-03-24T02:37:09.317Z,12.63
2023-03-24T02:38:09.310Z,12.66
2023-03-24T02:39:09.334Z,12.59
2023-03-24T02:40:09.302Z,12.62
2023-03-24T02:41:09.278Z,12.69
2023-03-24T02:42:09.268Z,12.69
2023-03-24T02:43:09.255Z,12.63
2023-03-24T02:44:09.240Z,12.62
2023-03-24T02:45:09.270Z,12.62
2023-03-24T02:46:09.253Z,12.69
2023-03-24T02:47:09.238Z,12.66
2023-03-24T02:48:10.494Z,12.62
2023-03-24T02:49:09.201Z,12.59
2023-03-24T02:50:09.196Z,12.63
2023-03-24T02:51:09.168Z,12.62
2023-03-24T02:52:09.177Z,12.62
2023-03-24T02:53:09.152Z,12.66
2023-03-24T02:54:09.135Z,12.58
2023-03-24T02:55:09.123Z,12.66
2023-03-24T02:56:09.106Z,12.59
2023-03-24T02:57:09.138Z,12.66
2023-03-24T02:58:09.084Z,12.59
2023-03-24T02:59:09.080Z,12.61
2023-03-24T03:00:09.087Z,12.66
2023-03-24T03:01:09.128Z,12.66
2023-03-24T03:02:09.059Z,12.63
2023-03-24T03:03:09.033Z,12.66
2023-03-24T03:04:09.056Z,12.66
2023-03-24T03:05:09.040Z,12.61
2023-03-24T03:06:08.996Z,12.62
2023-03-24T03:07:08.985Z,12.63
2023-03-24T03:08:08.995Z,12.66
2023-03-24T03:09:08.989Z,12.59
2023-03-24T03:10:08.961Z,12.58
2023-03-24T03:11:08.962Z,12.61
2023-03-24T03:12:08.929Z,12.59
2023-03-24T03:13:08.932Z,12.62
2023-03-24T03:14:08.937Z,12.66
2023-03-24T03:15:08.902Z,12.59
2023-03-24T03:16:08.914Z,12.66
2023-03-24T03:17:08.892Z,12.55
2023-03-24T03:18:08.899Z,12.61
2023-03-24T03:19:08.887Z,12.59
2023-03-24T03:20:08.849Z,12.62
2023-03-24T03:21:08.860Z,12.66
2023-03-24T03:22:08.825Z,12.65
2023-03-24T03:23:08.812Z,12.55
2023-03-24T03:24:08.825Z,12.55
2023-03-24T03:25:08.799Z,12.62
2023-03-24T03:26:08.801Z,12.61
2023-03-24T03:27:08.771Z,12.55
2023-03-24T03:28:08.760Z,12.69
2023-03-24T03:29:08.775Z,12.68
2023-03-24T03:30:08.738Z,12.62
2023-03-24T03:31:08.745Z,12.63
2023-03-24T03:32:08.718Z,12.69
2023-03-24T03:33:08.788Z,12.66
2023-03-24T03:34:08.735Z,12.65
2023-03-24T03:35:08.691Z,12.65
2023-03-24T03:36:08.707Z,12.55
2023-03-24T03:37:08.672Z,12.63
2023-03-24T03:38:08.653Z,12.61
2023-03-24T03:39:08.656Z,12.66
2023-03-24T03:40:08.674Z,12.61
2023-03-24T03:41:08.623Z,12.68
2023-03-24T03:42:08.615Z,12.62
2023-03-24T03:43:08.606Z,12.61
2023-03-24T03:44:08.587Z,12.68
2023-03-24T03:45:08.605Z,12.59
2023-03-24T03:46:08.648Z,12.65
2023-03-24T03:47:08.562Z,12.65
2023-03-24T03:48:08.563Z,12.59
2023-03-24T03:49:08.566Z,12.59
2023-03-24T03:50:08.552Z,12.68
2023-03-24T03:51:13.950Z,12.65
2023-03-24T03:52:09.505Z,12.51
2023-03-24T03:53:08.502Z,12.65
2023-03-24T03:54:08.485Z,12.66
2023-03-24T03:55:08.502Z,12.51
2023-03-24T03:56:08.466Z,12.68
2023-03-24T03:57:08.476Z,12.63
2023-03-24T03:58:08.446Z,12.63
2023-03-24T03:59:08.442Z,12.59
2023-03-24T04:00:08.441Z,12.55
2023-03-24T04:01:08.407Z,12.61
2023-03-24T04:02:08.415Z,12.62
2023-03-24T04:03:08.456Z,12.59
2023-03-24T04:04:08.396Z,12.69
2023-03-24T04:05:08.533Z,12.59
2023-03-24T04:06:08.361Z,12.61
2023-03-24T04:07:08.353Z,12.63
2023-03-24T04:08:08.380Z,12.61
2023-03-24T04:09:08.321Z,12.62
2023-03-24T04:10:08.334Z,12.72
2023-03-24T04:11:08.309Z,12.54
2023-03-24T04:12:08.294Z,12.59
2023-03-24T04:13:08.283Z,12.59
2023-03-24T04:14:08.273Z,12.59
2023-03-24T04:15:08.279Z,12.59
2023-03-24T04:16:08.306Z,12.62
2023-03-24T04:17:08.230Z,12.61
2023-03-24T04:18:08.224Z,12.58
2023-03-24T04:19:08.221Z,12.69
2023-03-24T04:20:08.225Z,12.72
2023-03-24T04:21:08.283Z,12.71
2023-03-24T04:22:08.190Z,12.59
2023-03-24T04:23:08.164Z,12.59
2023-03-24T04:24:08.160Z,12.59
2023-03-24T04:25:08.170Z,12.59
2023-03-24T04:26:08.141Z,12.62
2023-03-24T04:27:08.128Z,12.63
2023-03-24T04:28:08.117Z,12.73
2023-03-24T04:29:08.097Z,12.61
2023-03-24T04:30:08.140Z,12.65
2023-03-24T04:31:08.132Z,12.76
2023-03-24T04:32:08.093Z,12.71
2023-03-24T04:33:08.063Z,12.72
2023-03-24T04:34:08.051Z,12.62
2023-03-24T04:35:08.034Z,12.62
2023-03-24T04:36:08.044Z,12.73
2023-03-24T04:37:08.069Z,12.73
2023-03-24T04:38:08.020Z,12.73
2023-03-24T04:39:07.997Z,12.76
2023-03-24T04:40:08.021Z,12.71
2023-03-24T04:41:07.990Z,12.68
2023-03-24T04:42:07.997Z,12.76
2023-03-24T04:43:07.944Z,12.68
2023-03-24T04:44:07.955Z,12.63
2023-03-24T04:45:07.933Z,12.79
2023-03-24T04:46:07.954Z,12.65
2023-03-24T04:47:07.978Z,12.71
2023-03-24T04:48:07.943Z,12.73
2023-03-24T04:49:07.925Z,12.77
2023-03-24T04:50:07.876Z,12.79
2023-03-24T04:51:07.860Z,12.66
2023-03-24T04:52:07.866Z,12.71
2023-03-24T04:53:07.889Z,12.66
2023-03-24T04:54:07.849Z,12.72
2023-03-24T04:55:07.815Z,12.76
2023-03-24T04:56:07.809Z,12.71
2023-03-24T04:57:07.853Z,12.76
2023-03-24T04:58:07.817Z,12.73
2023-03-24T04:59:07.772Z,12.68
2023-03-24T05:00:07.801Z,12.77
2023-03-24T05:01:07.781Z,12.73
2023-03-24T05:02:07.740Z,12.71
2023-03-24T05:03:07.766Z,12.77
2023-03-24T05:04:07.787Z,12.68
2023-03-24T05:05:07.722Z,12.72
2023-03-24T05:06:07.735Z,12.68
2023-03-24T05:07:07.696Z,12.68
2023-03-24T05:08:07.708Z,12.72
2023-03-24T05:09:07.685Z,12.73
2023-03-24T05:10:07.678Z,12.68
2023-03-24T05:11:07.651Z,12.72
2023-03-24T05:12:07.636Z,12.80
2023-03-24T05:13:07.647Z,12.73
2023-03-24T05:14:07.613Z,12.83
2023-03-24T05:15:07.601Z,12.71
2023-03-24T05:16:07.658Z,12.72
2023-03-24T05:17:07.580Z,12.76
2023-03-24T05:18:07.630Z,12.76
2023-03-24T05:19:07.566Z,12.81
2023-03-24T05:20:07.568Z,12.77
2023-03-24T05:21:07.539Z,12.77
2023-03-24T05:22:07.545Z,12.68
2023-03-24T05:23:07.505Z,12.76
2023-03-24T05:24:07.509Z,12.73
2023-03-24T05:25:07.543Z,12.76
2023-03-24T05:26:07.486Z,12.79
2023-03-24T05:27:07.464Z,12.83
2023-03-24T05:28:07.467Z,12.80
2023-03-24T05:29:07.466Z,12.80
2023-03-24T05:30:07.462Z,12.79
2023-03-24T05:31:07.435Z,12.80
2023-03-24T05:32:07.419Z,12.77
2023-03-24T05:33:07.423Z,12.77
2023-03-24T05:34:07.417Z,12.79
2023-03-24T05:35:07.398Z,12.77
2023-03-24T05:36:07.406Z,12.80
2023-03-24T05:37:07.362Z,12.79
2023-03-24T05:38:07.345Z,12.80
2023-03-24T05:39:07.369Z,12.81
2023-03-24T05:40:07.340Z,12.81
2023-03-24T05:41:07.338Z,12.84
2023-03-24T05:42:07.312Z,12.80
2023-03-24T05:43:07.288Z,12.80
2023-03-24T05:44:07.321Z,12.81
2023-03-24T05:45:07.304Z,12.81
2023-03-24T05:46:07.277Z,12.90
2023-03-24T05:47:07.247Z,12.90
2023-03-24T05:48:07.309Z,12.90
2023-03-24T05:49:07.220Z,12.91
2023-03-24T05:50:07.240Z,12.86
2023-03-24T05:51:07.212Z,12.93
2023-03-24T05:52:07.208Z,12.95
2023-03-24T05:53:07.181Z,12.95
2023-03-24T05:54:07.233Z,12.91
2023-03-24T05:55:07.193Z,12.81
2023-03-24T05:56:07.161Z,12.87
2023-03-24T05:57:07.192Z,12.81
2023-03-24T05:58:07.132Z,12.88
2023-03-24T05:59:07.139Z,12.90
2023-03-24T06:00:07.134Z,12.90
2023-03-24T06:01:07.093Z,12.95
2023-03-24T06:02:07.114Z,12.95
2023-03-24T06:03:07.158Z,12.99
2023-03-24T06:04:07.187Z,12.98
2023-03-24T06:05:07.054Z,12.90
2023-03-24T06:06:07.063Z,13.01
2023-03-24T06:07:07.038Z,12.93
2023-03-24T06:08:07.027Z,12.93
2023-03-24T06:09:07.029Z,12.96
2023-03-24T06:10:07.002Z,12.88
2023-03-24T06:11:06.990Z,12.88
2023-03-24T06:12:06.979Z,12.88
2023-03-24T06:13:07.010Z,12.99
2023-03-24T06:14:06.962Z,12.98
2023-03-24T06:15:06.973Z,12.91
2023-03-24T06:16:06.966Z,12.95
2023-03-24T06:17:06.958Z,12.96
2023-03-24T06:18:06.959Z,13.04
2023-03-24T06:19:06.914Z,13.04
2023-03-24T06:20:06.929Z,12.96
2023-03-24T06:21:06.881Z,12.99
2023-03-24T06:22:06.900Z,13.04
2023-03-24T06:23:06.867Z,12.98
2023-03-24T06:24:06.850Z,13.04
2023-03-24T06:25:06.867Z,13.04
2023-03-24T06:26:06.842Z,13.05
2023-03-24T06:27:06.814Z,12.96
2023-03-24T06:28:06.808Z,13.02
2023-03-24T06:29:06.826Z,13.01
2023-03-24T06:30:06.818Z,13.02
2023-03-24T06:31:06.804Z,13.04
2023-03-24T06:32:06.769Z,13.02
2023-03-24T06:33:08.409Z,13.04
2023-03-24T06:34:06.844Z,13.02
2023-03-24T06:35:06.756Z,13.04
2023-03-24T06:36:06.754Z,13.08
2023-03-24T06:37:06.721Z,13.16
2023-03-24T06:38:06.706Z,13.20
2023-03-24T06:39:06.689Z,13.13
2023-03-24T06:40:06.704Z,13.20
2023-03-24T06:41:06.692Z,13.06
2023-03-24T06:42:06.659Z,13.06
2023-03-24T06:43:06.658Z,13.14
2023-03-24T06:44:06.645Z,13.13
2023-03-24T06:45:06.714Z,13.14
2023-03-24T06:46:06.659Z,13.06
2023-03-24T06:47:06.615Z,13.11
2023-03-24T06:48:06.635Z,13.06
2023-03-24T06:49:06.579Z,13.14
2023-03-24T06:50:06.592Z,13.11
2023-03-24T06:51:06.591Z,13.14
2023-03-24T06:52:06.568Z,13.21
2023-03-24T06:53:06.553Z,13.23
2023-03-24T06:54:06.543Z,13.21
2023-03-24T06:55:06.543Z,13.17
2023-03-24T06:56:06.540Z,13.21
2023-03-24T06:57:06.514Z,13.21
2023-03-24T06:58:06.490Z,13.16
2023-03-24T06:59:06.478Z,13.24
2023-03-24T07:00:06.480Z,13.23
2023-03-24T07:01:06.528Z,13.23
2023-03-24T07:02:06.493Z,13.21
2023-03-24T07:03:06.570Z,13.17
2023-03-24T07:04:06.600Z,13.21
2023-03-24T07:05:06.420Z,13.20
2023-03-24T07:06:06.421Z,13.14
2023-03-24T07:09:06.369Z,13.24
2023-03-24T07:10:06.361Z,13.21
2023-03-24T07:11:06.371Z,13.24
2023-03-24T07:12:06.341Z,13.17
2023-03-24T07:13:06.324Z,13.24
2023-03-24T07:14:06.330Z,13.26
2023-03-24T07:15:06.302Z,13.38
2023-03-24T07:16:06.366Z,13.27
2023-03-24T07:17:06.458Z,13.38
2023-03-24T07:18:06.302Z,13.27
2023-03-24T07:19:06.268Z,13.29
2023-03-24T07:20:06.253Z,13.39
2023-03-24T07:21:06.263Z,13.26
2023-03-24T07:22:06.238Z,13.32
2023-03-24T07:23:06.218Z,13.46
2023-03-24T07:24:06.239Z,13.40
2023-03-24T07:25:06.477Z,13.39
2023-03-24T07:26:06.190Z,13.42
2023-03-24T07:27:06.176Z,13.45
2023-03-24T07:28:06.165Z,13.55
2023-03-24T07:29:06.174Z,13.49
2023-03-24T07:30:06.164Z,13.49
2023-03-24T07:31:06.170Z,13.63
2023-03-24T07:32:06.126Z,13.55
2023-03-24T07:33:06.155Z,13.54
2023-03-24T07:34:06.129Z,13.64
2023-03-24T07:35:06.089Z,13.64
2023-03-24T07:36:06.130Z,13.76
2023-03-24T07:37:06.071Z,13.64
2023-03-24T07:38:06.078Z,13.67
2023-03-24T07:39:06.050Z,13.72
2023-03-24T07:40:06.036Z,13.65
2023-03-24T07:41:06.029Z,13.68
2023-03-24T07:42:06.035Z,13.76
2023-03-24T07:43:06.345Z,13.79
2023-03-24T07:44:06.000Z,13.78
2023-03-24T07:45:05.981Z,13.80
2023-03-24T07:46:07.281Z,13.91
2023-03-24T07:47:05.978Z,13.88
2023-03-24T07:48:05.966Z,13.88
2023-03-24T07:49:18.200Z,13.86
2023-03-24T07:50:06.921Z,13.96
2023-03-24T07:51:05.912Z,13.96
2023-03-24T07:52:05.921Z,13.90
2023-03-24T07:53:05.892Z,13.90
2023-03-24T07:54:05.890Z,13.90
2023-03-24T07:55:05.875Z,14.01
2023-03-24T07:56:05.897Z,13.98
2023-03-24T07:57:06.922Z,14.00
2023-03-24T07:58:05.838Z,13.97
2023-03-24T07:59:05.884Z,14.00
2023-03-24T08:00:05.816Z,14.01
2023-03-24T08:01:05.801Z,14.00
2023-03-24T08:02:05.824Z,13.97
2023-03-24T08:03:05.862Z,13.96
2023-03-24T08:04:05.836Z,13.98
2023-03-24T08:05:05.789Z,14.11
2023-03-24T08:06:05.757Z,14.00
2023-03-24T08:07:05.733Z,14.03
2023-03-24T08:08:05.727Z,14.09
2023-03-24T08:09:05.899Z,14.08
2023-03-24T08:10:05.725Z,14.08
2023-03-24T08:11:05.695Z,14.03
2023-03-24T08:12:13.813Z,14.05
2023-03-24T08:13:06.670Z,14.08
2023-03-24T08:14:05.705Z,14.08
2023-03-24T08:15:05.645Z,14.04
2023-03-24T08:16:05.647Z,14.08
2023-03-24T08:17:05.624Z,14.12
2023-03-24T08:18:05.683Z,14.08
2023-03-24T08:19:05.628Z,14.18
2023-03-24T08:20:06.081Z,14.15
2023-03-24T08:21:05.617Z,14.21
2023-03-24T08:22:05.582Z,14.16
2023-03-24T08:23:05.563Z,14.15
2023-03-24T08:24:05.566Z,14.11
2023-03-24T08:25:05.536Z,14.16
2023-03-24T08:26:05.521Z,14.21
2023-03-24T08:27:05.522Z,14.18
2023-03-24T08:28:05.510Z,14.15
2023-03-24T08:29:05.532Z,14.16
2023-03-24T08:30:05.478Z,14.18
2023-03-24T08:31:05.524Z,14.22
2023-03-24T08:32:05.464Z,14.21
2023-03-24T08:33:05.513Z,14.16
2023-03-24T08:34:05.436Z,14.22
2023-03-24T08:35:05.454Z,14.16
2023-03-24T08:36:05.539Z,14.13
2023-03-24T08:37:05.432Z,14.21
2023-03-24T08:38:07.163Z,14.23
2023-03-24T08:39:05.383Z,14.19
2023-03-24T08:40:05.449Z,14.16
2023-03-24T08:41:05.397Z,14.26
2023-03-24T08:42:05.357Z,14.19
2023-03-24T08:43:05.345Z,14.26
2023-03-24T08:44:06.895Z,14.08
2023-03-24T08:45:05.344Z,14.23
2023-03-24T08:46:05.373Z,14.11
2023-03-24T08:47:05.304Z,14.22
2023-03-24T08:48:05.304Z,14.18
2023-03-24T08:49:05.274Z,14.22
2023-03-24T08:50:05.283Z,14.22
2023-03-24T08:51:05.272Z,14.22
2023-03-24T08:52:05.244Z,14.30
2023-03-24T08:53:05.253Z,14.21
2023-03-24T08:54:05.210Z,14.18
2023-03-24T08:55:05.232Z,14.11
2023-03-24T08:56:05.194Z,14.23
2023-03-24T08:57:05.230Z,14.21
2023-03-24T08:58:05.190Z,14.19
2023-03-24T08:59:05.158Z,14.21
2023-03-24T09:00:05.144Z,14.23
2023-03-24T09:01:05.150Z,14.19
2023-03-24T09:02:05.203Z,14.21
2023-03-24T09:03:05.133Z,14.22
2023-03-24T09:04:05.130Z,14.26
2023-03-24T09:05:05.181Z,14.26
2023-03-24T09:06:05.079Z,14.22
2023-03-24T09:07:05.067Z,14.31
2023-03-24T09:08:05.059Z,14.26
2023-03-24T09:09:05.135Z,14.19
2023-03-24T09:10:05.053Z,14.28
2023-03-24T09:11:05.065Z,14.31
2023-03-24T09:12:05.031Z,14.30
2023-03-24T09:13:05.002Z,14.34
2023-03-24T09:14:05.004Z,14.27
2023-03-24T09:15:05.002Z,14.28
2023-03-24T09:16:05.021Z,14.34
2023-03-24T09:17:04.985Z,14.30
2023-03-24T09:18:04.962Z,14.22
2023-03-24T09:19:04.940Z,14.27
2023-03-24T09:20:04.925Z,14.36
2023-03-24T09:21:04.927Z,14.28
2023-03-24T09:22:04.906Z,14.36
2023-03-24T09:23:04.913Z,14.34
2023-03-24T09:24:04.887Z,14.38
2023-03-24T09:25:04.912Z,14.37
2023-03-24T09:26:04.862Z,14.36
2023-03-24T09:27:04.849Z,14.37
2023-03-24T09:28:04.863Z,14.41
2023-03-24T09:29:04.835Z,14.45
2023-03-24T09:30:04.815Z,14.44
2023-03-24T09:31:04.859Z,14.41
2023-03-24T09:32:04.792Z,14.41
2023-03-24T09:33:04.829Z,14.44
2023-03-24T09:34:04.808Z,14.46
2023-03-24T09:35:04.763Z,14.49
2023-03-24T09:36:05.580Z,14.44
2023-03-24T09:37:04.739Z,14.49
2023-03-24T09:38:04.724Z,14.49
2023-03-24T09:39:04.747Z,14.53
2023-03-24T09:40:04.709Z,14.58
2023-03-24T09:41:04.717Z,14.61
2023-03-24T09:42:04.682Z,14.53
2023-03-24T09:43:04.696Z,14.56
2023-03-24T09:44:04.667Z,14.61
2023-03-24T09:45:04.657Z,14.63
2023-03-24T09:46:04.635Z,14.71
2023-03-24T09:47:04.720Z,14.77
2023-03-24T09:48:04.671Z,14.73
2023-03-24T09:49:04.612Z,14.79
2023-03-24T09:50:04.611Z,14.83
2023-03-24T09:51:04.592Z,14.90
2023-03-24T09:52:04.599Z,14.90
2023-03-24T09:53:04.594Z,14.90
2023-03-24T09:54:04.564Z,14.95
2023-03-24T09:55:04.541Z,14.95
2023-03-24T09:56:04.573Z,15.01
2023-03-24T09:57:04.676Z,15.08
2023-03-24T09:58:04.521Z,15.12
2023-03-24T09:59:04.526Z,15.12
2023-03-24T10:00:04.496Z,15.08
2023-03-24T10:01:04.513Z,15.08
2023-03-24T10:02:04.468Z,15.04
2023-03-24T10:03:04.532Z,15.07
2023-03-24T10:04:04.592Z,15.08
2023-03-24T10:05:04.441Z,15.15
2023-03-24T10:06:04.428Z,15.15
2023-03-24T10:07:04.424Z,15.08
2023-03-24T10:08:04.410Z,15.11
2023-03-24T10:09:04.417Z,15.15
2023-03-24T10:10:04.386Z,15.15
2023-03-24T10:11:04.379Z,15.20
2023-03-24T10:12:04.360Z,15.22
2023-03-24T10:13:04.414Z,15.26
2023-03-24T10:14:04.535Z,15.27
2023-03-24T10:15:04.332Z,15.27
2023-03-24T10:16:04.343Z,15.29
2023-03-24T10:17:04.306Z,15.29
2023-03-24T10:18:04.349Z,15.35
2023-03-24T10:19:04.289Z,15.27
2023-03-24T10:20:04.284Z,15.27
2023-03-24T10:21:04.268Z,15.35
2023-03-24T10:22:04.260Z,15.35
2023-03-24T10:23:04.282Z,15.44
2023-03-24T10:24:04.233Z,15.41
2023-03-24T10:25:04.224Z,15.44
2023-03-24T10:26:04.228Z,15.41
2023-03-24T10:27:04.207Z,15.48
2023-03-24T10:28:04.209Z,15.47
2023-03-24T10:29:04.211Z,15.47
2023-03-24T10:30:04.176Z,15.43
2023-03-24T10:31:04.188Z,15.43
2023-03-24T10:32:04.223Z,15.56
2023-03-24T10:33:04.179Z,15.54
2023-03-24T10:34:04.122Z,15.51
2023-03-24T10:35:04.125Z,15.56
2023-03-24T10:36:05.852Z,15.51
2023-03-24T10:37:04.147Z,15.68
2023-03-24T10:38:04.084Z,15.60
2023-03-24T10:39:18.311Z,15.69
2023-03-24T10:40:05.084Z,15.72
2023-03-24T10:41:04.062Z,15.78
2023-03-24T10:42:06.132Z,15.87
2023-03-24T10:43:07.383Z,15.84
2023-03-24T10:44:05.045Z,15.96
2023-03-24T10:45:04.032Z,16.10
2023-03-24T10:46:04.011Z,16.14
2023-03-24T10:47:04.005Z,16.18
2023-03-24T10:48:04.008Z,16.17
2023-03-24T10:49:03.986Z,16.21
2023-03-24T10:50:12.764Z,16.25
2023-03-24T10:51:04.944Z,16.25
2023-03-24T10:52:04.053Z,16.29
2023-03-24T10:53:03.927Z,16.34
2023-03-24T10:54:03.944Z,16.32
2023-03-24T10:55:03.934Z,16.36
2023-03-24T10:56:03.887Z,16.26
2023-03-24T10:57:03.943Z,16.29
2023-03-24T10:58:03.889Z,16.29
2023-03-24T10:59:03.875Z,16.22
2023-03-24T11:00:03.842Z,16.37
2023-03-24T11:01:03.896Z,16.28
2023-03-24T11:02:03.950Z,16.39
2023-03-24T11:03:03.925Z,16.37
2023-03-24T11:04:03.816Z,16.40
2023-03-24T11:05:03.906Z,16.37
2023-03-24T11:06:03.773Z,16.43
2023-03-24T11:07:03.797Z,16.43
2023-03-24T11:08:03.753Z,16.44
2023-03-24T11:09:03.744Z,16.46
2023-03-24T11:10:03.736Z,16.49
2023-03-24T11:11:03.734Z,16.49
2023-03-24T11:12:03.716Z,16.51
2023-03-24T11:13:03.729Z,16.58
2023-03-24T11:14:03.698Z,16.58
2023-03-24T11:15:17.581Z,16.54
2023-03-24T11:16:03.665Z,16.55
2023-03-24T11:17:03.759Z,16.62
2023-03-24T11:18:03.700Z,16.62
2023-03-24T11:19:03.652Z,16.65
2023-03-24T11:20:03.632Z,16.65
2023-03-24T11:21:03.616Z,16.62
2023-03-24T11:22:03.601Z,16.70
2023-03-24T11:23:03.623Z,16.69
2023-03-24T11:24:03.578Z,16.69
2023-03-24T11:25:03.573Z,16.70
2023-03-24T11:26:03.561Z,16.79
2023-03-24T11:27:03.555Z,16.76
2023-03-24T11:28:03.563Z,16.90
2023-03-24T11:29:03.534Z,16.99
2023-03-24T11:30:03.509Z,17.14
2023-03-24T11:31:03.554Z,17.30
2023-03-24T11:32:03.500Z,17.39
2023-03-24T11:33:03.562Z,17.38
2023-03-24T11:34:03.480Z,17.45
2023-03-24T11:35:03.466Z,17.45
2023-03-24T11:36:05.846Z,17.49
2023-03-24T11:37:03.469Z,17.65
2023-03-24T11:38:03.462Z,17.63
2023-03-24T11:39:03.416Z,17.66
2023-03-24T11:40:03.410Z,17.57
2023-03-24T11:41:03.406Z,17.66
2023-03-24T11:42:03.404Z,17.57
2023-03-24T11:43:03.372Z,17.79
2023-03-24T11:44:03.379Z,17.65
2023-03-24T11:45:03.368Z,17.69
2023-03-24T11:46:03.387Z,17.79
2023-03-24T11:47:03.333Z,17.75
2023-03-24T11:48:03.435Z,17.68
2023-03-24T11:49:03.348Z,17.68
2023-03-24T11:50:03.299Z,17.78
2023-03-24T11:51:03.290Z,17.87
2023-03-24T11:52:03.275Z,17.93
2023-03-24T11:53:03.277Z,17.87
2023-03-24T11:54:03.276Z,17.87
2023-03-24T11:55:03.245Z,17.78
2023-03-24T11:56:03.230Z,17.81
2023-03-24T11:57:03.239Z,17.88
2023-03-24T11:58:03.214Z,17.86
2023-03-24T11:59:03.242Z,17.88
2023-03-24T12:00:03.190Z,17.94
2023-03-24T12:01:03.181Z,17.97
2023-03-24T12:02:03.186Z,17.91
2023-03-24T12:03:03.326Z,18.02
2023-03-24T12:04:03.247Z,17.96
2023-03-24T12:05:03.156Z,17.97
2023-03-24T12:06:03.132Z,18.01
2023-03-24T12:07:03.113Z,18.05
2023-03-24T12:08:03.104Z,18.08
2023-03-24T12:09:03.112Z,18.05
2023-03-24T12:10:03.078Z,18.17
2023-03-24T12:11:03.095Z,18.21
2023-03-24T12:12:07.810Z,18.21
2023-03-24T12:13:03.053Z,18.21
2023-03-24T12:14:03.065Z,18.23
2023-03-24T12:15:03.033Z,18.21
2023-03-24T12:16:03.081Z,18.26
2023-03-24T12:17:03.018Z,18.26
2023-03-24T12:18:03.072Z,18.20
2023-03-24T12:19:02.984Z,18.30
2023-03-24T12:20:02.975Z,18.28
2023-03-24T12:21:03.005Z,18.23
2023-03-24T12:22:02.947Z,18.26
2023-03-24T12:23:02.938Z,18.31
2023-03-24T12:24:02.927Z,18.27
2023-03-24T12:25:02.916Z,18.31
2023-03-24T12:26:02.939Z,18.38
2023-03-24T12:27:02.892Z,18.39
2023-03-24T12:28:02.896Z,18.39
2023-03-24T12:29:02.874Z,18.26
2023-03-24T12:30:02.894Z,18.34
2023-03-24T12:31:02.885Z,18.30
2023-03-24T12:32:02.840Z,18.38
2023-03-24T12:33:02.843Z,18.33
2023-03-24T12:34:02.820Z,18.30
2023-03-24T12:35:02.830Z,18.27
2023-03-24T12:36:02.823Z,18.38
2023-03-24T12:37:02.801Z,18.28
2023-03-24T12:38:02.767Z,18.34
2023-03-24T12:39:02.765Z,18.38
2023-03-24T12:40:02.775Z,18.39
2023-03-24T12:41:02.749Z,18.27
2023-03-24T12:42:02.730Z,18.27
2023-03-24T12:43:02.712Z,18.39
2023-03-24T12:44:02.752Z,18.34
2023-03-24T12:45:02.688Z,18.38
2023-03-24T12:46:02.727Z,18.31
2023-03-24T12:47:02.667Z,18.34
2023-03-24T12:48:02.702Z,18.33
2023-03-24T12:49:02.692Z,18.28
2023-03-24T12:50:02.636Z,18.39
2023-03-24T12:51:02.654Z,18.39
2023-03-24T12:52:02.618Z,18.36
2023-03-24T12:53:07.686Z,18.34
2023-03-24T12:54:03.636Z,18.33